Time,TemperatureF,DewpointF,PressureIn,WindDirection,WindDirectionDegrees,WindSpeedMPH,WindSpeedGustMPH,Humidity,HourlyPrecipIn,Conditions,Clouds,dailyrainin,SoftwareType,DateUTC
2013-01-03 09:06:00,14.7,-0.6,30.17,West,280,6.0,8.0,50,0.00,,,0.00,Wunderground v.1.15,2013-01-03 14:06:00,
2013-01-03 09:15:00,15.0,-0.3,30.16,NNW,337,4.0,8.0,50,0.00,,,0.00,Wunderground v.1.15,2013-01-03 14:15:00,
2013-01-03 09:20:00,15.5,0.1,30.17,WNW,297,3.0,5.0,50,0.00,,,0.00,Wunderground v.1.15,2013-01-03 14:20:00,
2013-01-03 09:25:00,15.6,-0.6,30.17,West,262,4.0,5.0,48,0.00,,,0.00,Wunderground v.1.15,2013-01-03 14:25:00,
2013-01-03 09:30:00,15.8,-0.9,30.17,West,277,4.0,6.0,47,0.00,,,0.00,Wunderground v.1.15,2013-01-03 14:30:00,
2013-01-03 09:35:00,15.9,-0.8,30.17,NW,316,4.0,6.0,47,0.00,,,0.00,Wunderground v.1.15,2013-01-03 14:35:00,
2013-01-03 09:40:00,16.1,-0.6,30.17,West,277,4.0,4.0,47,0.00,,,0.00,Wunderground v.1.15,2013-01-03 14:40:00,
2013-01-03 09:50:00,16.3,-1.4,30.17,NW,310,5.0,5.0,45,0.00,,,0.00,Wunderground v.1.15,2013-01-03 14:50:00,
2013-01-03 09:55:00,16.3,-0.4,30.17,WNW,292,6.0,7.0,47,0.00,,,0.00,Wunderground v.1.15,2013-01-03 14:55:00,
2013-01-03 10:00:00,16.3,-1.4,30.17,West,280,7.0,8.0,45,0.00,,,0.00,Wunderground v.1.15,2013-01-03 15:00:00,
2013-01-03 10:05:00,16.5,-0.7,30.17,WNW,284,7.0,8.0,46,0.00,,,0.00,Wunderground v.1.15,2013-01-03 15:05:00,
2013-01-03 10:10:00,17.0,-0.3,30.17,WNW,292,5.0,5.0,46,0.00,,,0.00,Wunderground v.1.15,2013-01-03 15:10:00,
2013-01-03 10:15:00,17.6,-0.2,30.17,West,270,3.0,5.0,45,0.00,,,0.00,Wunderground v.1.15,2013-01-03 15:15:00,
2013-01-03 10:20:00,18.1,0.8,30.17,WSW,257,3.0,6.0,46,0.00,,,0.00,Wunderground v.1.15,2013-01-03 15:20:00,
2013-01-03 10:25:00,18.2,0.4,30.16,WNW,283,4.0,6.0,45,0.00,,,0.00,Wunderground v.1.15,2013-01-03 15:25:00,
2013-01-03 10:30:00,18.2,-0.1,30.16,West,281,5.0,6.0,44,0.00,,,0.00,Wunderground v.1.15,2013-01-03 15:30:00,
2013-01-03 10:35:00,18.8,1.9,30.16,WNW,282,4.0,6.0,47,0.00,,,0.00,Wunderground v.1.15,2013-01-03 15:35:00,
2013-01-03 10:40:00,19.0,1.6,30.16,NW,308,3.0,4.0,46,0.00,,,0.00,Wunderground v.1.15,2013-01-03 15:40:00,
2013-01-03 10:45:00,19.0,1.1,30.16,WNW,284,4.0,7.0,45,0.00,,,0.00,Wunderground v.1.15,2013-01-03 15:45:00,
2013-01-03 10:50:00,18.9,0.1,30.15,West,271,5.0,6.0,43,0.00,,,0.00,Wunderground v.1.15,2013-01-03 15:50:00,
2013-01-03 10:55:00,19.1,0.2,30.15,West,269,5.0,7.0,43,0.00,,,0.00,Wunderground v.1.15,2013-01-03 15:55:00,
2013-01-03 11:05:00,19.8,0.9,30.14,WNW,300,6.0,8.0,43,0.00,,,0.00,Wunderground v.1.15,2013-01-03 16:05:00,
2013-01-03 11:15:00,20.0,0.6,30.14,NW,308,7.0,7.0,42,0.00,,,0.00,Wunderground v.1.15,2013-01-03 16:15:00,
2013-01-03 11:20:00,20.6,1.6,30.14,WNW,287,5.0,5.0,43,0.00,,,0.00,Wunderground v.1.15,2013-01-03 16:20:00,
2013-01-03 11:25:00,20.6,0.1,30.13,NW,316,6.0,6.0,40,0.00,,,0.00,Wunderground v.1.15,2013-01-03 16:25:00,
2013-01-03 11:30:00,20.8,0.8,30.13,NW,316,7.0,7.0,41,0.00,,,0.00,Wunderground v.1.15,2013-01-03 16:30:00,
2013-01-03 11:35:00,21.3,1.2,30.13,SW,219,6.0,7.0,41,0.00,,,0.00,Wunderground v.1.15,2013-01-03 16:35:00,
2013-01-03 11:40:00,21.4,0.8,30.12,NW,320,5.0,6.0,40,0.00,,,0.00,Wunderground v.1.15,2013-01-03 16:40:00,
2013-01-03 11:45:00,21.4,1.3,30.12,NW,304,6.0,6.0,41,0.00,,,0.00,Wunderground v.1.15,2013-01-03 16:45:00,
2013-01-03 11:50:00,21.8,1.7,30.12,ENE,65,6.0,6.0,41,0.00,,,0.00,Wunderground v.1.15,2013-01-03 16:50:00,
2013-01-03 11:55:00,22.3,2.1,30.12,WNW,290,4.0,6.0,41,0.00,,,0.00,Wunderground v.1.15,2013-01-03 16:55:00,
2013-01-03 12:00:00,22.9,2.7,30.11,NNW,333,3.0,7.0,41,0.00,,,0.00,Wunderground v.1.15,2013-01-03 17:00:00,
2013-01-03 12:05:00,22.9,2.7,30.11,WNW,291,4.0,9.0,41,0.00,,,0.00,Wunderground v.1.15,2013-01-03 17:05:00,
2013-01-03 12:10:00,23.2,3.5,30.10,WNW,291,4.0,4.0,42,0.00,,,0.00,Wunderground v.1.15,2013-01-03 17:10:00,
2013-01-03 12:20:00,23.6,4.3,30.10,WSW,245,4.0,8.0,43,0.00,,,0.00,Wunderground v.1.15,2013-01-03 17:20:00,
2013-01-03 12:25:00,24.0,5.2,30.09,NW,312,5.0,8.0,44,0.00,,,0.00,Wunderground v.1.15,2013-01-03 17:25:00,
2013-01-03 12:30:00,24.4,6.1,30.09,WNW,283,6.0,6.0,45,0.00,,,0.00,Wunderground v.1.15,2013-01-03 17:30:00,
2013-01-03 12:35:00,24.9,7.0,30.09,West,272,6.0,6.0,46,0.00,,,0.00,Wunderground v.1.15,2013-01-03 17:35:00,
2013-01-03 12:45:00,25.5,8.0,30.08,NNW,347,5.0,7.0,47,0.00,,,0.00,Wunderground v.1.15,2013-01-03 17:45:00,
2013-01-03 12:50:00,25.5,8.5,30.08,NNW,334,5.0,5.0,48,0.00,,,0.00,Wunderground v.1.15,2013-01-03 17:50:00,
2013-01-03 12:55:00,26.0,9.0,30.08,SSW,207,6.0,6.0,48,0.00,,,0.00,Wunderground v.1.15,2013-01-03 17:55:00,
2013-01-03 13:00:00,26.1,9.5,30.08,NW,305,5.0,6.0,49,0.00,,,0.00,Wunderground v.1.15,2013-01-03 18:00:00,
2013-01-03 13:05:00,26.5,10.3,30.08,West,262,5.0,6.0,50,0.00,,,0.00,Wunderground v.1.15,2013-01-03 18:05:00,
2013-01-03 13:10:00,26.7,10.1,30.07,NW,312,5.0,5.0,49,0.00,,,0.00,Wunderground v.1.15,2013-01-03 18:10:00,
2013-01-03 13:20:00,27.1,11.3,30.07,NW,321,5.0,5.0,51,0.00,,,0.00,Wunderground v.1.15,2013-01-03 18:20:00,
2013-01-03 13:25:00,27.2,11.0,30.07,NW,312,4.0,5.0,50,0.00,,,0.00,Wunderground v.1.15,2013-01-03 18:25:00,
2013-01-03 13:30:00,27.6,11.8,30.07,WNW,297,4.0,5.0,51,0.00,,,0.00,Wunderground v.1.15,2013-01-03 18:30:00,
2013-01-03 13:35:00,27.7,11.9,30.07,NNW,330,4.0,5.0,51,0.00,,,0.00,Wunderground v.1.15,2013-01-03 18:35:00,
2013-01-03 13:40:00,27.9,11.6,30.07,North,351,4.0,6.0,50,0.00,,,0.00,Wunderground v.1.15,2013-01-03 18:40:00,
2013-01-03 13:45:00,27.9,12.1,30.07,WNW,290,5.0,6.0,51,0.00,,,0.00,Wunderground v.1.15,2013-01-03 18:45:00,
2013-01-03 13:50:00,28.0,12.2,30.06,NW,321,5.0,5.0,51,0.00,,,0.00,Wunderground v.1.15,2013-01-03 18:50:00,
2013-01-03 14:00:00,28.5,12.2,30.07,NW,319,4.0,6.0,50,0.00,,,0.00,Wunderground v.1.15,2013-01-03 19:00:00,
2013-01-03 14:05:00,28.4,12.6,30.07,West,264,5.0,6.0,51,0.00,,,0.00,Wunderground v.1.15,2013-01-03 19:05:00,
2013-01-03 14:15:00,28.6,12.3,30.07,NW,319,6.0,9.0,50,0.00,,,0.00,Wunderground v.1.15,2013-01-03 19:15:00,
2013-01-03 15:00:00,29.2,13.7,30.07,West,266,6.0,9.0,52,0.00,,,0.00,Wunderground v.1.15,2013-01-03 20:00:00,
2013-01-03 15:05:00,29.2,13.7,30.07,NW,305,6.0,9.0,52,0.00,,,0.00,Wunderground v.1.15,2013-01-03 20:05:00,
2013-01-03 15:10:00,29.3,13.8,30.07,WNW,287,5.0,5.0,52,0.00,,,0.00,Wunderground v.1.15,2013-01-03 20:10:00,
2013-01-03 15:15:00,29.3,13.8,30.06,West,269,5.0,5.0,52,0.00,,,0.00,Wunderground v.1.15,2013-01-03 20:15:00,
2013-01-03 15:20:00,29.3,13.8,30.06,NW,310,5.0,5.0,52,0.00,,,0.00,Wunderground v.1.15,2013-01-03 20:20:00,
2013-01-03 15:25:00,29.3,13.8,30.06,WSW,255,5.0,5.0,52,0.00,,,0.00,Wunderground v.1.15,2013-01-03 20:25:00,
2013-01-03 15:30:00,29.3,13.8,30.06,WNW,293,5.0,6.0,52,0.00,,,0.00,Wunderground v.1.15,2013-01-03 20:30:00,
2013-01-03 15:35:00,29.3,13.8,30.06,NNW,328,5.0,6.0,52,0.00,,,0.00,Wunderground v.1.15,2013-01-03 20:35:00,
2013-01-03 15:45:00,29.2,13.7,30.06,West,281,5.0,7.0,52,0.00,,,0.00,Wunderground v.1.15,2013-01-03 20:45:00,
2013-01-03 15:50:00,29.2,14.2,30.06,WNW,300,5.0,5.0,53,0.00,,,0.00,Wunderground v.1.15,2013-01-03 20:50:00,
2013-01-03 15:55:00,29.3,14.3,30.06,SW,222,4.0,5.0,53,0.00,,,0.00,Wunderground v.1.15,2013-01-03 20:55:00,
2013-01-03 16:00:00,29.4,14.4,30.06,West,271,3.0,3.0,53,0.00,,,0.00,Wunderground v.1.15,2013-01-03 21:00:00,
2013-01-03 16:05:00,29.3,14.7,30.06,West,281,3.0,4.0,54,0.00,,,0.00,Wunderground v.1.15,2013-01-03 21:05:00,
2013-01-03 16:10:00,29.1,14.1,30.06,WNW,300,4.0,4.0,53,0.00,,,0.00,Wunderground v.1.15,2013-01-03 21:10:00,
2013-01-03 16:20:00,28.7,14.1,30.06,West,278,3.0,5.0,54,0.00,,,0.00,Wunderground v.1.15,2013-01-03 21:20:00,
2013-01-03 16:25:00,28.5,14.4,30.06,WNW,300,3.0,5.0,55,0.00,,,0.00,Wunderground v.1.15,2013-01-03 21:25:00,
2013-01-03 16:35:00,28.1,14.4,30.06,WNW,300,3.0,3.0,56,0.00,,,0.00,Wunderground v.1.15,2013-01-03 21:35:00,
2013-01-03 16:40:00,28.0,14.3,30.06,West,273,3.0,3.0,56,0.00,,,0.00,Wunderground v.1.15,2013-01-03 21:40:00,
2013-01-03 16:46:00,27.8,14.5,30.06,West,281,3.0,3.0,57,0.00,,,0.00,Wunderground v.1.15,2013-01-03 21:46:00,
2013-01-03 16:55:00,27.5,14.2,30.06,WNW,288,2.0,2.0,57,0.00,,,0.00,Wunderground v.1.15,2013-01-03 21:55:00,
2013-01-03 17:00:00,27.4,14.1,30.06,West,267,1.0,3.0,57,0.00,,,0.00,Wunderground v.1.15,2013-01-03 22:00:00,
2013-01-03 17:05:00,27.3,14.5,30.06,West,274,2.0,3.0,58,0.00,,,0.00,Wunderground v.1.15,2013-01-03 22:05:00,
2013-01-03 17:10:00,27.2,14.4,30.06,WNW,291,2.0,2.0,58,0.00,,,0.00,Wunderground v.1.15,2013-01-03 22:10:00,
2013-01-03 17:15:00,27.1,14.3,30.06,WNW,291,2.0,3.0,58,0.00,,,0.00,Wunderground v.1.15,2013-01-03 22:15:00,
2013-01-03 17:20:00,27.1,14.3,30.07,WNW,293,3.0,3.0,58,0.00,,,0.00,Wunderground v.1.15,2013-01-03 22:20:00,
2013-01-03 17:25:00,27.1,14.3,30.07,WNW,290,3.0,3.0,58,0.00,,,0.00,Wunderground v.1.15,2013-01-03 22:25:00,
2013-01-03 17:30:00,27.0,14.2,30.07,West,278,2.0,3.0,58,0.00,,,0.00,Wunderground v.1.15,2013-01-03 22:30:00,
2013-01-03 17:35:00,27.0,14.6,30.07,NW,313,2.0,3.0,59,0.00,,,0.00,Wunderground v.1.15,2013-01-03 22:35:00,
2013-01-03 17:45:00,26.9,14.5,30.07,WNW,285,2.0,4.0,59,0.00,,,0.00,Wunderground v.1.15,2013-01-03 22:45:00,
2013-01-03 17:50:00,26.8,14.4,30.07,WNW,297,2.0,2.0,59,0.00,,,0.00,Wunderground v.1.15,2013-01-03 22:50:00,
2013-01-03 17:55:00,26.7,14.3,30.08,West,281,2.0,3.0,59,0.00,,,0.00,Wunderground v.1.15,2013-01-03 22:55:00,
2013-01-03 18:00:00,26.7,14.3,30.08,West,274,2.0,4.0,59,0.00,,,0.00,Wunderground v.1.15,2013-01-03 23:00:00,
2013-01-03 18:05:00,26.6,14.6,30.07,WNW,287,3.0,4.0,60,0.00,,,0.00,Wunderground v.1.15,2013-01-03 23:05:00,
2013-01-03 18:10:00,26.6,14.6,30.08,West,271,3.0,3.0,60,0.00,,,0.00,Wunderground v.1.15,2013-01-03 23:10:00,
2013-01-03 18:15:00,26.6,14.6,30.08,West,266,4.0,4.0,60,0.00,,,0.00,Wunderground v.1.15,2013-01-03 23:15:00,
2013-01-03 18:20:00,26.6,15.3,30.07,West,265,3.0,3.0,62,0.00,,,0.00,Wunderground v.1.15,2013-01-03 23:20:00,
2013-01-03 18:25:00,26.7,15.4,30.07,SW,236,3.0,6.0,62,0.00,,,0.00,Wunderground v.1.15,2013-01-03 23:25:00,
2013-01-03 18:30:00,26.8,15.1,30.08,West,271,4.0,4.0,61,0.00,,,0.00,Wunderground v.1.15,2013-01-03 23:30:00,
2013-01-03 18:35:00,26.9,15.2,30.08,West,279,5.0,5.0,61,0.00,,,0.00,Wunderground v.1.15,2013-01-03 23:35:00,
2013-01-03 18:40:00,26.8,15.1,30.08,West,264,5.0,8.0,61,0.00,,,0.00,Wunderground v.1.15,2013-01-03 23:40:00,
2013-01-03 18:45:00,26.7,15.0,30.08,SW,232,5.0,8.0,61,0.00,,,0.00,Wunderground v.1.15,2013-01-03 23:45:00,
2013-01-03 18:50:00,26.7,15.0,30.08,West,281,4.0,7.0,61,0.00,,,0.00,Wunderground v.1.15,2013-01-03 23:50:00,
2013-01-03 18:55:00,26.6,15.3,30.08,West,267,4.0,7.0,62,0.00,,,0.00,Wunderground v.1.15,2013-01-03 23:55:00,
2013-01-03 19:00:00,26.5,15.2,30.08,WNW,291,3.0,3.0,62,0.00,,,0.00,Wunderground v.1.15,2013-01-04 00:00:00,
2013-01-03 19:05:00,26.5,15.2,30.08,SW,231,3.0,3.0,62,0.00,,,0.00,Wunderground v.1.15,2013-01-04 00:05:00,
2013-01-03 19:10:00,26.4,15.1,30.07,West,280,2.0,3.0,62,0.00,,,0.00,Wunderground v.1.15,2013-01-04 00:10:00,
2013-01-03 19:15:00,26.4,15.1,30.08,West,274,2.0,4.0,62,0.00,,,0.00,Wunderground v.1.15,2013-01-04 00:15:00,
2013-01-03 19:20:00,26.5,15.2,30.08,WNW,288,3.0,3.0,62,0.00,,,0.00,Wunderground v.1.15,2013-01-04 00:20:00,
2013-01-03 19:25:00,26.5,15.2,30.09,WNW,285,4.0,4.0,62,0.00,,,0.00,Wunderground v.1.15,2013-01-04 00:25:00,
2013-01-03 19:30:00,26.4,15.1,30.08,WNW,284,3.0,4.0,62,0.00,,,0.00,Wunderground v.1.15,2013-01-04 00:30:00,
2013-01-03 19:35:00,26.4,15.5,30.08,West,263,3.0,4.0,63,0.00,,,0.00,Wunderground v.1.15,2013-01-04 00:35:00,
2013-01-03 19:45:00,26.4,15.5,30.08,West,263,3.0,3.0,63,0.00,,,0.00,Wunderground v.1.15,2013-01-04 00:45:00,
2013-01-03 19:50:00,26.4,15.5,30.08,WNW,285,3.0,3.0,63,0.00,,,0.00,Wunderground v.1.15,2013-01-04 00:50:00,
2013-01-03 19:55:00,26.3,15.4,30.08,WSW,246,3.0,3.0,63,0.00,,,0.00,Wunderground v.1.15,2013-01-04 00:55:00,
2013-01-03 20:00:00,26.3,15.0,30.08,WNW,283,3.0,3.0,62,0.00,,,0.00,Wunderground v.1.15,2013-01-04 01:00:00,
2013-01-03 20:05:00,26.2,14.9,30.08,West,276,3.0,3.0,62,0.00,,,0.00,Wunderground v.1.15,2013-01-04 01:05:00,
2013-01-03 20:10:00,26.1,15.2,30.07,West,280,3.0,4.0,63,0.00,,,0.00,Wunderground v.1.15,2013-01-04 01:10:00,
2013-01-03 20:15:00,26.0,15.1,30.07,West,281,3.0,4.0,63,0.00,,,0.00,Wunderground v.1.15,2013-01-04 01:15:00,
2013-01-03 20:20:00,26.0,15.1,30.07,West,278,2.0,3.0,63,0.00,,,0.00,Wunderground v.1.15,2013-01-04 01:20:00,
2013-01-03 20:25:00,25.9,15.0,30.07,West,277,2.0,3.0,63,0.00,,,0.00,Wunderground v.1.15,2013-01-04 01:25:00,
2013-01-03 20:30:00,25.9,15.4,30.07,West,267,2.0,2.0,64,0.00,,,0.00,Wunderground v.1.15,2013-01-04 01:30:00,
2013-01-03 20:35:00,26.0,15.1,30.07,WNW,283,2.0,3.0,63,0.00,,,0.00,Wunderground v.1.15,2013-01-04 01:35:00,
2013-01-03 20:40:00,26.0,15.1,30.06,WSW,257,2.0,2.0,63,0.00,,,0.00,Wunderground v.1.15,2013-01-04 01:40:00,
2013-01-03 20:45:00,25.9,15.4,30.07,West,270,1.0,2.0,64,0.00,,,0.00,Wunderground v.1.15,2013-01-04 01:45:00,
2013-01-03 20:50:00,25.9,15.4,30.06,WSW,247,1.0,1.0,64,0.00,,,0.00,Wunderground v.1.15,2013-01-04 01:50:00,
2013-01-03 20:55:00,25.9,15.4,30.06,West,280,1.0,1.0,64,0.00,,,0.00,Wunderground v.1.15,2013-01-04 01:55:00,
2013-01-03 21:00:00,26.1,15.6,30.06,West,281,1.0,2.0,64,0.00,,,0.00,Wunderground v.1.15,2013-01-04 02:00:00,
2013-01-03 21:05:00,26.2,15.3,30.06,West,277,2.0,2.0,63,0.00,,,0.00,Wunderground v.1.15,2013-01-04 02:05:00,
2013-01-03 21:10:00,26.2,15.3,30.06,WNW,282,2.0,2.0,63,0.00,,,0.00,Wunderground v.1.15,2013-01-04 02:10:00,
2013-01-03 21:20:00,26.4,15.5,30.06,WNW,287,2.0,2.0,63,0.00,,,0.00,Wunderground v.1.15,2013-01-04 02:20:00,
2013-01-03 21:25:00,26.4,15.9,30.06,West,274,2.0,3.0,64,0.00,,,0.00,Wunderground v.1.15,2013-01-04 02:25:00,
2013-01-03 21:35:00,26.5,16.0,30.06,West,259,2.0,3.0,64,0.00,,,0.00,Wunderground v.1.15,2013-01-04 02:35:00,
2013-01-03 21:40:00,26.6,16.1,30.06,West,277,2.0,2.0,64,0.00,,,0.00,Wunderground v.1.15,2013-01-04 02:40:00,
2013-01-03 21:45:00,26.5,16.0,30.06,NNW,328,2.0,2.0,64,0.00,,,0.00,Wunderground v.1.15,2013-01-04 02:45:00,
2013-01-03 21:50:00,26.4,15.9,30.06,WNW,302,1.0,1.0,64,0.00,,,0.00,Wunderground v.1.15,2013-01-04 02:50:00,
2013-01-03 21:55:00,26.3,15.8,30.06,WNW,284,0.0,2.0,64,0.00,,,0.00,Wunderground v.1.15,2013-01-04 02:55:00,
2013-01-03 22:00:00,26.3,15.8,30.06,NW,315,0.0,1.0,64,0.00,,,0.00,Wunderground v.1.15,2013-01-04 03:00:00,
2013-01-03 22:05:00,26.3,16.1,30.06,NW,315,1.0,1.0,65,0.00,,,0.00,Wunderground v.1.15,2013-01-04 03:05:00,
2013-01-03 22:10:00,26.5,16.7,30.06,WNW,299,1.0,1.0,66,0.00,,,0.00,Wunderground v.1.15,2013-01-04 03:10:00,
2013-01-03 22:15:00,26.8,17.3,30.06,West,281,1.0,2.0,67,0.00,,,0.00,Wunderground v.1.15,2013-01-04 03:15:00,
2013-01-03 22:20:00,27.4,17.5,30.05,West,271,2.0,2.0,66,0.00,,,0.00,Wunderground v.1.15,2013-01-04 03:20:00,
2013-01-03 22:25:00,27.6,17.7,30.06,WNW,294,2.0,2.0,66,0.00,,,0.00,Wunderground v.1.15,2013-01-04 03:25:00,
2013-01-03 22:30:00,27.5,17.6,30.06,WNW,284,2.0,2.0,66,0.00,,,0.00,Wunderground v.1.15,2013-01-04 03:30:00,
2013-01-03 22:35:00,27.3,17.4,30.06,West,277,2.0,3.0,66,0.00,,,0.00,Wunderground v.1.15,2013-01-04 03:35:00,
2013-01-03 22:40:00,27.2,17.3,30.06,NW,306,3.0,3.0,66,0.00,,,0.00,Wunderground v.1.15,2013-01-04 03:40:00,
2013-01-03 22:45:00,27.1,17.2,30.06,WNW,291,3.0,3.0,66,0.00,,,0.00,Wunderground v.1.15,2013-01-04 03:45:00,
2013-01-03 22:50:00,27.1,17.6,30.06,WSW,256,2.0,5.0,67,0.00,,,0.00,Wunderground v.1.15,2013-01-04 03:50:00,
2013-01-03 23:00:00,27.5,18.0,30.06,West,277,3.0,4.0,67,0.00,,,0.00,Wunderground v.1.15,2013-01-04 04:00:00,
2013-01-03 23:05:00,27.6,18.1,30.05,SW,232,4.0,4.0,67,0.00,,,0.00,Wunderground v.1.15,2013-01-04 04:05:00,
2013-01-03 23:10:00,27.8,18.3,30.05,WNW,285,4.0,4.0,67,0.00,,,0.00,Wunderground v.1.15,2013-01-04 04:10:00,
2013-01-03 23:20:00,28.3,18.7,30.05,West,260,5.0,5.0,67,0.00,,,0.00,Wunderground v.1.15,2013-01-04 04:20:00,
2013-01-03 23:25:00,28.3,18.7,30.04,West,275,4.0,5.0,67,0.00,,,0.00,Wunderground v.1.15,2013-01-04 04:25:00,
2013-01-03 23:30:00,28.5,18.9,30.04,West,274,5.0,5.0,67,0.00,,,0.00,Wunderground v.1.15,2013-01-04 04:30:00,
2013-01-03 23:35:00,28.6,19.0,30.04,West,259,5.0,5.0,67,0.00,,,0.00,Wunderground v.1.15,2013-01-04 04:35:00,
2013-01-03 23:40:00,28.6,19.4,30.04,West,278,5.0,5.0,68,0.00,,,0.00,Wunderground v.1.15,2013-01-04 04:40:00,
2013-01-03 23:45:00,28.7,19.5,30.04,West,274,5.0,5.0,68,0.00,,,0.00,Wunderground v.1.15,2013-01-04 04:45:00,
2013-01-03 23:55:00,28.7,19.5,30.03,WSW,248,5.0,5.0,68,0.00,,,0.00,Wunderground v.1.15,2013-01-04 04:55:00,